sensor_id;sensor_type;location;lat;lon;timestamp;P1;durP1;ratioP1;P2;durP2;ratioP2
16973;SDS011;8603;46.944;7.412;2022-12-18T11:45:15;15.77;;;9.10;;
16973;SDS011;8603;46.944;7.412;2022-12-18T12:18:36;16.10;;;9.13;;
16973;SDS011;8603;46.944;7.412;2022-12-18T12:21:21;17.37;;;9.20;;
16973;SDS011;8603;46.944;7.412;2022-12-18T12:23:58;16.53;;;9.80;;
16973;SDS011;8603;46.944;7.412;2022-12-18T12:39:42;14.93;;;8.73;;
16973;SDS011;8603;46.944;7.412;2022-12-18T12:47:56;16.17;;;9.80;;
16973;SDS011;8603;46.944;7.412;2022-12-18T13:03:42;14.27;;;8.77;;
16973;SDS011;8603;46.944;7.412;2022-12-18T13:06:33;14.47;;;8.80;;
16973;SDS011;8603;46.944;7.412;2022-12-18T13:09:03;14.73;;;8.20;;
16973;SDS011;8603;46.944;7.412;2022-12-18T13:24:15;11.43;;;7.20;;
16973;SDS011;8603;46.944;7.412;2022-12-18T13:26:55;13.27;;;7.37;;
16973;SDS011;8603;46.944;7.412;2022-12-18T13:32:20;12.20;;;7.30;;
16973;SDS011;8603;46.944;7.412;2022-12-18T13:35:10;19.53;;;7.83;;
16973;SDS011;8603;46.944;7.412;2022-12-18T13:37:53;12.53;;;7.30;;
16973;SDS011;8603;46.944;7.412;2022-12-18T13:51:00;11.50;;;7.03;;
16973;SDS011;8603;46.944;7.412;2022-12-18T13:53:46;11.07;;;7.10;;
16973;SDS011;8603;46.944;7.412;2022-12-18T13:56:22;9.50;;;6.20;;
16973;SDS011;8603;46.944;7.412;2022-12-18T14:02:22;13.33;;;7.57;;
16973;SDS011;8603;46.944;7.412;2022-12-18T14:04:50;10.70;;;7.07;;
16973;SDS011;8603;46.944;7.412;2022-12-18T14:07:26;11.07;;;6.83;;
16973;SDS011;8603;46.944;7.412;2022-12-18T14:09:57;10.17;;;6.97;;
16973;SDS011;8603;46.944;7.412;2022-12-18T14:12:32;7.57;;;5.57;;
16973;SDS011;8603;46.944;7.412;2022-12-18T14:15:34;10.47;;;7.13;;
16973;SDS011;8603;46.944;7.412;2022-12-18T14:21:06;13.13;;;6.77;;
16973;SDS011;8603;46.944;7.412;2022-12-18T14:24:29;8.83;;;6.00;;
16973;SDS011;8603;46.944;7.412;2022-12-18T14:27:22;9.13;;;6.23;;
16973;SDS011;8603;46.944;7.412;2022-12-18T14:29:50;8.53;;;6.37;;
16973;SDS011;8603;46.944;7.412;2022-12-18T14:35:37;8.97;;;6.73;;
16973;SDS011;8603;46.944;7.412;2022-12-18T14:40:52;11.30;;;6.47;;
16973;SDS011;8603;46.944;7.412;2022-12-18T14:43:19;12.40;;;7.70;;
16973;SDS011;8603;46.944;7.412;2022-12-18T14:45:46;11.43;;;7.57;;
16973;SDS011;8603;46.944;7.412;2022-12-18T14:50:54;11.77;;;7.63;;
16973;SDS011;8603;46.944;7.412;2022-12-18T14:53:32;10.30;;;7.03;;
16973;SDS011;8603;46.944;7.412;2022-12-18T14:56:00;11.43;;;7.03;;
16973;SDS011;8603;46.944;7.412;2022-12-18T14:58:27;10.97;;;7.57;;
16973;SDS011;8603;46.944;7.412;2022-12-18T15:00:53;27.97;;;13.60;;
16973;SDS011;8603;46.944;7.412;2022-12-18T15:03:19;75.87;;;33.00;;
16973;SDS011;8603;46.944;7.412;2022-12-18T15:05:46;63.57;;;30.57;;
16973;SDS011;8603;46.944;7.412;2022-12-18T15:08:35;15.73;;;10.10;;
16973;SDS011;8603;46.944;7.412;2022-12-18T15:11:01;11.93;;;7.50;;
16973;SDS011;8603;46.944;7.412;2022-12-18T15:13:52;15.83;;;10.50;;
16973;SDS011;8603;46.944;7.412;2022-12-18T15:16:18;14.33;;;9.00;;
16973;SDS011;8603;46.944;7.412;2022-12-18T15:18:43;12.60;;;8.50;;
16973;SDS011;8603;46.944;7.412;2022-12-18T15:21:10;10.43;;;7.20;;
16973;SDS011;8603;46.944;7.412;2022-12-18T15:26:17;25.20;;;13.50;;
16973;SDS011;8603;46.944;7.412;2022-12-18T15:28:48;25.27;;;12.60;;
16973;SDS011;8603;46.944;7.412;2022-12-18T15:33:59;16.50;;;9.30;;
16973;SDS011;8603;46.944;7.412;2022-12-18T15:36:34;15.40;;;9.27;;
16973;SDS011;8603;46.944;7.412;2022-12-18T15:39:03;14.90;;;9.37;;
16973;SDS011;8603;46.944;7.412;2022-12-18T15:41:32;14.23;;;8.73;;
16973;SDS011;8603;46.944;7.412;2022-12-18T15:43:59;14.53;;;8.80;;
16973;SDS011;8603;46.944;7.412;2022-12-18T15:46:25;51.73;;;23.70;;
16973;SDS011;8603;46.944;7.412;2022-12-18T15:48:54;25.50;;;11.73;;
16973;SDS011;8603;46.944;7.412;2022-12-18T15:51:22;17.37;;;9.63;;
16973;SDS011;8603;46.944;7.412;2022-12-18T15:53:49;12.97;;;8.50;;
16973;SDS011;8603;46.944;7.412;2022-12-18T15:56:18;13.43;;;8.43;;
16973;SDS011;8603;46.944;7.412;2022-12-18T15:59:04;15.40;;;8.50;;
16973;SDS011;8603;46.944;7.412;2022-12-18T16:01:35;17.87;;;9.13;;
16973;SDS011;8603;46.944;7.412;2022-12-18T16:04:00;16.63;;;9.50;;
16973;SDS011;8603;46.944;7.412;2022-12-18T16:06:26;15.57;;;9.87;;
16973;SDS011;8603;46.944;7.412;2022-12-18T16:08:51;15.00;;;9.67;;
16973;SDS011;8603;46.944;7.412;2022-12-18T16:14:15;18.40;;;10.57;;
16973;SDS011;8603;46.944;7.412;2022-12-18T16:16:54;18.03;;;10.50;;
16973;SDS011;8603;46.944;7.412;2022-12-18T16:19:21;15.13;;;10.33;;
16973;SDS011;8603;46.944;7.412;2022-12-18T16:21:51;19.80;;;11.40;;
16973;SDS011;8603;46.944;7.412;2022-12-18T16:24:22;18.93;;;11.17;;
16973;SDS011;8603;46.944;7.412;2022-12-18T16:27:14;23.30;;;13.27;;
16973;SDS011;8603;46.944;7.412;2022-12-18T16:29:53;22.57;;;12.53;;
16973;SDS011;8603;46.944;7.412;2022-12-18T16:32:27;19.13;;;12.10;;
16973;SDS011;8603;46.944;7.412;2022-12-18T16:35:18;18.60;;;10.63;;
16973;SDS011;8603;46.944;7.412;2022-12-18T16:37:44;18.77;;;11.97;;
16973;SDS011;8603;46.944;7.412;2022-12-18T16:40:10;18.30;;;11.43;;
16973;SDS011;8603;46.944;7.412;2022-12-18T16:42:38;25.03;;;12.33;;
16973;SDS011;8603;46.944;7.412;2022-12-18T16:45:06;24.23;;;13.33;;
16973;SDS011;8603;46.944;7.412;2022-12-18T16:47:34;28.20;;;15.47;;
16973;SDS011;8603;46.944;7.412;2022-12-18T16:50:03;19.80;;;11.40;;
16973;SDS011;8603;46.944;7.412;2022-12-18T16:52:32;16.43;;;10.60;;
16973;SDS011;8603;46.944;7.412;2022-12-18T16:55:10;19.63;;;11.70;;
16973;SDS011;8603;46.944;7.412;2022-12-18T16:57:48;18.17;;;10.50;;
16973;SDS011;8603;46.944;7.412;2022-12-18T17:00:16;17.83;;;10.60;;
16973;SDS011;8603;46.944;7.412;2022-12-18T17:02:44;17.17;;;11.40;;
16973;SDS011;8603;46.944;7.412;2022-12-18T17:05:25;18.27;;;10.90;;
16973;SDS011;8603;46.944;7.412;2022-12-18T17:07:54;19.23;;;11.40;;
16973;SDS011;8603;46.944;7.412;2022-12-18T17:10:25;16.23;;;10.20;;
16973;SDS011;8603;46.944;7.412;2022-12-18T17:13:11;20.90;;;12.10;;
16973;SDS011;8603;46.944;7.412;2022-12-18T17:16:12;19.97;;;11.83;;
16973;SDS011;8603;46.944;7.412;2022-12-18T17:18:53;17.97;;;11.33;;
16973;SDS011;8603;46.944;7.412;2022-12-18T17:21:24;18.63;;;10.73;;
16973;SDS011;8603;46.944;7.412;2022-12-18T17:30:24;21.30;;;12.43;;
16973;SDS011;8603;46.944;7.412;2022-12-18T17:33:11;21.13;;;12.87;;
16973;SDS011;8603;46.944;7.412;2022-12-18T17:36:00;34.53;;;16.77;;
16973;SDS011;8603;46.944;7.412;2022-12-18T17:42:26;21.00;;;12.33;;
16973;SDS011;8603;46.944;7.412;2022-12-18T17:45:08;17.83;;;11.80;;
16973;SDS011;8603;46.944;7.412;2022-12-18T17:48:22;18.60;;;11.70;;
16973;SDS011;8603;46.944;7.412;2022-12-18T17:51:08;20.97;;;12.63;;
16973;SDS011;8603;46.944;7.412;2022-12-18T17:53:50;21.03;;;12.00;;
16973;SDS011;8603;46.944;7.412;2022-12-18T17:56:18;25.63;;;14.93;;
16973;SDS011;8603;46.944;7.412;2022-12-18T17:58:49;22.60;;;13.90;;
16973;SDS011;8603;46.944;7.412;2022-12-18T18:01:17;23.87;;;13.90;;
16973;SDS011;8603;46.944;7.412;2022-12-18T18:03:45;23.70;;;13.17;;
16973;SDS011;8603;46.944;7.412;2022-12-18T18:06:13;22.33;;;13.73;;
16973;SDS011;8603;46.944;7.412;2022-12-18T18:08:49;20.13;;;11.70;;
16973;SDS011;8603;46.944;7.412;2022-12-18T18:11:16;23.30;;;12.57;;
16973;SDS011;8603;46.944;7.412;2022-12-18T18:14:03;20.90;;;13.60;;
16973;SDS011;8603;46.944;7.412;2022-12-18T18:16:37;20.73;;;12.00;;
16973;SDS011;8603;46.944;7.412;2022-12-18T18:19:10;22.93;;;13.80;;
16973;SDS011;8603;46.944;7.412;2022-12-18T18:21:46;26.73;;;14.63;;
16973;SDS011;8603;46.944;7.412;2022-12-18T18:24:22;23.47;;;12.97;;
16973;SDS011;8603;46.944;7.412;2022-12-18T18:27:07;25.47;;;13.97;;
16973;SDS011;8603;46.944;7.412;2022-12-18T18:29:51;25.57;;;13.00;;
16973;SDS011;8603;46.944;7.412;2022-12-18T18:32:18;25.10;;;14.23;;
16973;SDS011;8603;46.944;7.412;2022-12-18T18:35:06;23.53;;;12.70;;
16973;SDS011;8603;46.944;7.412;2022-12-18T18:37:38;24.40;;;13.80;;
16973;SDS011;8603;46.944;7.412;2022-12-18T18:40:04;24.00;;;14.53;;
16973;SDS011;8603;46.944;7.412;2022-12-18T18:42:30;29.77;;;14.93;;
16973;SDS011;8603;46.944;7.412;2022-12-18T18:44:56;27.60;;;14.20;;
16973;SDS011;8603;46.944;7.412;2022-12-18T18:47:37;26.10;;;15.73;;
16973;SDS011;8603;46.944;7.412;2022-12-18T18:50:53;26.03;;;14.40;;
16973;SDS011;8603;46.944;7.412;2022-12-18T18:54:00;25.57;;;14.83;;
16973;SDS011;8603;46.944;7.412;2022-12-18T18:56:26;33.30;;;18.07;;
16973;SDS011;8603;46.944;7.412;2022-12-18T18:58:54;31.73;;;17.00;;
16973;SDS011;8603;46.944;7.412;2022-12-18T19:01:20;33.70;;;17.47;;
16973;SDS011;8603;46.944;7.412;2022-12-18T19:06:48;34.43;;;18.13;;
16973;SDS011;8603;46.944;7.412;2022-12-18T19:16:20;31.53;;;16.97;;
16973;SDS011;8603;46.944;7.412;2022-12-18T19:18:53;29.80;;;16.17;;
16973;SDS011;8603;46.944;7.412;2022-12-18T19:22:00;29.70;;;16.60;;
16973;SDS011;8603;46.944;7.412;2022-12-18T20:51:15;26.33;;;15.33;;
16973;SDS011;8603;46.944;7.412;2022-12-18T20:58:11;25.27;;;14.57;;
16973;SDS011;8603;46.944;7.412;2022-12-18T22:26:14;28.70;;;17.13;;
16973;SDS011;8603;46.944;7.412;2022-12-18T22:29:09;27.03;;;15.40;;
16973;SDS011;8603;46.944;7.412;2022-12-18T22:32:13;27.27;;;14.73;;
16973;SDS011;8603;46.944;7.412;2022-12-18T23:40:40;24.13;;;13.57;;
16973;SDS011;8603;46.944;7.412;2022-12-18T23:43:38;22.00;;;13.73;;
